SBOSBO AYT / LTAI
Speedbird OnlineSpeedbird Online AYT / LTAI

Antalya International Airport
11:26 28°C

Location Antalya, Turkey
Latitude: 36.898701
Longitude: 30.800501
Web Airport Website | Wikipedia
Altitude 54 Meter / 177 Feet
Distance 2,902 KM / 1,803 Miles
from London.
Time Zone UTC +3 hours (Europe/Istanbul)
Codes IATA: AYT
ICAO: LTAI
Currency £1 equals TRY 21.04
Runways
RunwayLength (m)Surface
18C3400concrete
18L3400Concrete
18R2990concrete
36C3400concrete
36L2990concrete
36R3400Concrete
Radio
TypeDescriptionFrequency
APPupper122.05
ATISATIS118.275
Approacharrival119.65
CLDCLNC DEL123.175
GNDGND121.9
HAVASHandling Services131.45
TWRTWR east125
TWRTWR west126.1
Live ATC
METAR LTAI 060750Z 34006KT 290V060 9999 SCT030 28/10 Q1015 NOSIG RMK RWY18C 35005KT 290V080 RWY36R 35004KT 290V060 RWY18L 03004KT 300V090
TAF TAF LTAI 060440Z 0606/0706 34008KT 9999 SCT030 BECMG 0608/0611 16012KT BECMG 0612/0615 FEW020CB BKN030 BECMG 0615/0617 VRB02KT TEMPO 0617/0621 -TSRA BECMG 0622/0701 34012KT
Weather As Of 06 Oct 2022 11:26
Description Scattered clouds
Wind 11 km/h from North (340°)
Cloud Cover 40%
Precipitation Rain: none, Snow: none
Sunrise 06:55
Sunset 18:33
Lounges CIP Lounge, T1 International Terminal, 3 floo
Rotations During the last 90 days there were
68 flights from LGW
68 flights to LGW


© 2017-2022 Speedbird Online